Time;durP1;ratioP1;P1;durP2;ratioP2;P2;SDS_P1;SDS_P2;PMS_P1;PMS_P2;Temp;Humidity;BMP_temperature;BMP_pressure;BME280_temperature;BME280_humidity;BME280_pressure;Samples;Min_cycle;Max_cycle;Signal;HPM_P1;HPM_P2
2021/12/19 00:01:46;;;;;;;;;39.00;35.00;;;;;-147.17;100.00;50263.31;4953318;28;51028;-55
2021/12/19 00:04:34;;;;;;;;;31.50;29.25;;;;;-147.17;100.00;50241.66;4953586;28;51386;-57
2021/12/19 00:09:47;;;;;;;;;30.50;25.00;;;;;-147.17;100.00;50245.59;4954372;28;50878;-57
2021/12/19 00:12:16;;;;;;;;;31.00;26.25;;;;;-147.17;100.00;50286.94;4954599;28;50945;-58
2021/12/19 00:14:45;;;;;;;;;38.00;33.75;;;;;-147.17;100.00;50265.28;4954373;28;51187;-56
2021/12/19 00:17:14;;;;;;;;;30.50;27.50;;;;;-147.17;100.00;50253.47;4952690;28;51035;-58
2021/12/19 00:19:49;;;;;;;;;41.25;35.25;;;;;-147.17;100.00;50259.38;4953141;28;51071;-57
2021/12/19 00:22:18;;;;;;;;;38.50;33.00;;;;;-147.17;100.00;50265.28;4953614;28;51190;-57
2021/12/19 00:24:43;;;;;;;;;35.25;31.25;;;;;-147.17;100.00;50273.16;4954113;28;51170;-56
2021/12/19 00:27:09;;;;;;;;;39.50;32.75;;;;;-147.17;100.00;50273.16;4953645;28;51802;-55
2021/12/19 00:29:37;;;;;;;;;31.75;29.00;;;;;-147.17;100.00;50259.38;4953860;28;50987;-58
2021/12/19 00:32:03;;;;;;;;;33.25;30.00;;;;;-147.17;100.00;50237.72;4954162;28;51055;-55
2021/12/19 00:34:29;;;;;;;;;40.50;36.00;;;;;-147.17;100.00;50267.25;4952916;28;51224;-56
2021/12/19 00:36:54;;;;;;;;;39.75;35.00;;;;;-147.17;100.00;50257.41;4952792;28;52788;-55
2021/12/19 00:39:20;;;;;;;;;33.00;29.25;;;;;-147.17;100.00;50257.41;4951479;28;51010;-58
2021/12/19 00:41:52;;;;;;;;;32.50;28.00;;;;;-147.17;100.00;50233.78;4954377;28;50968;-57
2021/12/19 00:44:22;;;;;;;;;32.25;26.75;;;;;-147.17;100.00;50241.66;4953759;28;51287;-55
2021/12/19 00:46:51;;;;;;;;;36.25;31.25;;;;;-147.17;100.00;50253.47;4953669;28;52117;-58
2021/12/19 00:49:23;;;;;;;;;31.50;29.25;;;;;-147.17;100.00;50277.09;4952537;28;51084;-58
2021/12/19 00:51:51;;;;;;;;;41.00;31.75;;;;;-147.17;100.00;50249.53;4953853;28;51152;-56
2021/12/19 00:54:17;;;;;;;;;29.25;26.75;;;;;-147.17;100.00;50237.72;4953961;28;51048;-57
2021/12/19 00:56:48;;;;;;;;;27.25;25.00;;;;;-147.17;100.00;50204.25;4953617;28;51691;-57
2021/12/19 00:59:13;;;;;;;;;35.50;28.50;;;;;-147.17;100.00;50257.41;4953568;28;51211;-56
2021/12/19 01:01:39;;;;;;;;;22.25;22.00;;;;;-147.17;100.00;50277.09;4953937;28;50941;-56
2021/12/19 01:04:12;;;;;;;;;31.75;28.75;;;;;-147.17;100.00;50239.69;4954171;28;50930;-56
2021/12/19 01:06:39;;;;;;;;;33.50;30.25;;;;;-147.17;100.00;50233.78;4953309;28;52419;-56
2021/12/19 01:09:05;;;;;;;;;42.50;31.25;;;;;-147.17;100.00;50229.84;4952897;28;50870;-55
2021/12/19 01:11:32;;;;;;;;;34.25;30.25;;;;;-147.17;100.00;50233.78;4953583;28;51160;-60
2021/12/19 01:13:58;;;;;;;;;29.50;26.25;;;;;-147.17;100.00;50261.34;4952019;28;50950;-56
2021/12/19 01:16:24;;;;;;;;;31.75;27.25;;;;;-147.17;100.00;50253.47;4949780;28;53099;-57
2021/12/19 01:18:53;;;;;;;;;28.00;23.50;;;;;-147.17;100.00;50223.94;4956859;28;51036;-57
2021/12/19 01:21:23;;;;;;;;;31.50;30.00;;;;;-147.17;100.00;50241.66;4955239;28;51240;-57
2021/12/19 01:23:49;;;;;;;;;26.75;20.50;;;;;-147.17;100.00;50245.59;4955676;28;51288;-57
2021/12/19 01:26:15;;;;;;;;;26.25;25.00;;;;;-147.17;100.00;50229.84;4956911;28;52074;-56
2021/12/19 01:28:42;;;;;;;;;31.75;29.00;;;;;-147.17;100.00;50245.59;4956477;28;51160;-55
2021/12/19 01:31:10;;;;;;;;;28.00;24.00;;;;;-147.17;100.00;50245.59;4955666;28;51129;-57
2021/12/19 01:33:40;;;;;;;;;28.25;19.00;;;;;-147.17;100.00;50233.78;4957421;28;50958;-56
2021/12/19 01:36:12;;;;;;;;;24.75;23.25;;;;;-147.17;100.00;50221.97;4956827;28;52244;-57
2021/12/19 01:38:38;;;;;;;;;26.25;22.75;;;;;-147.17;100.00;50257.41;4956768;28;50925;-57
2021/12/19 01:41:12;;;;;;;;;32.75;27.25;;;;;-147.17;100.00;50257.41;4956936;28;51044;-57
2021/12/19 01:43:38;;;;;;;;;24.50;20.75;;;;;-147.17;100.00;50220.00;4956565;28;50937;-56
2021/12/19 01:46:04;;;;;;;;;24.25;21.00;;;;;-147.17;100.00;50210.16;4956585;28;52884;-54
2021/12/19 01:48:30;;;;;;;;;22.75;21.50;;;;;-147.17;100.00;50218.03;4956676;28;51018;-59
2021/12/19 01:51:01;;;;;;;;;26.50;20.50;;;;;-147.17;100.00;50190.47;4957163;28;51117;-57
2021/12/19 01:53:28;;;;;;;;;20.00;17.50;;;;;-147.17;100.00;50237.72;4957135;28;51180;-58
2021/12/19 01:55:57;;;;;;;;;24.50;23.00;;;;;-147.17;100.00;50241.66;4955754;28;52100;-54
2021/12/19 01:58:24;;;;;;;;;21.75;19.50;;;;;-147.17;100.00;50227.88;4949843;28;51325;-56
2021/12/19 02:00:57;;;;;;;;;26.75;23.25;;;;;-147.17;100.00;50174.72;4955019;28;51041;-58
2021/12/19 02:03:24;;;;;;;;;27.25;23.25;;;;;-147.17;100.00;50229.84;4955200;28;51028;-57
2021/12/19 02:05:50;;;;;;;;;22.50;19.50;;;;;-147.17;100.00;50223.94;4954861;28;50985;-55
2021/12/19 02:08:17;;;;;;;;;23.75;19.50;;;;;-147.17;100.00;50216.06;4956215;28;51164;-55
2021/12/19 02:10:44;;;;;;;;;21.75;20.25;;;;;-147.17;100.00;50221.97;4955043;28;51002;-56
2021/12/19 02:13:12;;;;;;;;;3.25;0.00;;;;;-147.17;100.00;50208.19;4961139;28;51309;-57
2021/12/19 02:15:42;;;;;;;;;21.50;19.50;;;;;-147.17;100.00;50233.78;4955640;28;51116;-57
2021/12/19 02:18:19;;;;;;;;;21.25;18.00;;;;;-147.17;100.00;50225.91;4956200;28;51060;-54
2021/12/19 02:20:57;;;;;;;;;18.50;17.25;;;;;-147.17;100.00;50233.78;4956268;28;51234;-54
2021/12/19 02:23:30;;;;;;;;;21.25;19.00;;;;;-147.17;100.00;50237.72;4955261;28;51087;-55
2021/12/19 02:25:59;;;;;;;;;26.25;18.00;;;;;-147.17;100.00;50218.03;4954379;28;51174;-57
2021/12/19 02:28:25;;;;;;;;;19.00;17.25;;;;;-147.17;100.00;50233.78;4954810;28;51281;-57
2021/12/19 02:30:52;;;;;;;;;20.50;14.00;;;;;-147.17;100.00;50225.91;4955896;28;51022;-56
2021/12/19 02:33:22;;;;;;;;;21.67;18.00;;;;;-147.17;100.00;50214.09;4956411;28;51098;-55
2021/12/19 02:36:17;;;;;;;;;23.50;20.00;;;;;-147.17;100.00;50216.06;4956019;28;51925;-61
2021/12/19 02:49:31;;;;;;;;;22.50;20.75;;;;;-147.17;100.00;50208.19;4955423;28;51234;-54
2021/12/19 02:51:57;;;;;;;;;26.25;23.00;;;;;-147.17;100.00;50198.34;4954722;28;51145;-56
2021/12/19 02:54:24;;;;;;;;;23.50;18.50;;;;;-147.17;100.00;50208.19;4955166;28;51365;-56
2021/12/19 02:56:50;;;;;;;;;24.25;22.25;;;;;-147.17;100.00;50220.00;4955510;28;50915;-55
2021/12/19 02:59:16;;;;;;;;;21.00;18.25;;;;;-147.17;100.00;50166.84;4950763;28;50995;-57
2021/12/19 03:01:46;;;;;;;;;17.75;15.75;;;;;-147.17;100.00;50198.34;4947913;28;50927;-56
2021/12/19 03:04:12;;;;;;;;;16.75;13.75;;;;;-147.17;100.00;50208.19;4954728;28;51135;-54
2021/12/19 03:06:48;;;;;;;;;20.00;17.00;;;;;-147.17;100.00;50251.50;4954358;28;53040;-57
2021/12/19 03:09:25;;;;;;;;;22.25;19.50;;;;;-147.17;100.00;50204.25;4955289;28;51036;-56
2021/12/19 03:20:04;;;;;;;;;23.00;21.50;;;;;-147.17;100.00;50257.41;4955040;28;50933;-54
2021/12/19 03:22:31;;;;;;;;;21.75;17.50;;;;;-147.17;100.00;50214.09;4955226;28;51131;-57
2021/12/19 03:25:00;;;;;;;;;21.75;18.00;;;;;-147.17;100.00;50220.00;4955331;28;50869;-57
2021/12/19 03:27:26;;;;;;;;;20.25;17.75;;;;;-147.17;100.00;50212.13;4951320;28;51715;-56
2021/12/19 03:29:52;;;;;;;;;23.50;21.25;;;;;-147.17;100.00;50220.00;4954751;28;51136;-56
2021/12/19 03:32:18;;;;;;;;;15.75;11.75;;;;;-147.17;100.00;50194.41;4955523;28;51087;-56
2021/12/19 03:34:44;;;;;;;;;23.25;17.00;;;;;-147.17;100.00;50214.09;4954770;28;51301;-56
2021/12/19 03:37:09;;;;;;;;;17.00;16.00;;;;;-147.17;100.00;50225.91;4954781;28;52434;-58
2021/12/19 03:39:55;;;;;;;;;27.75;25.00;;;;;-147.17;100.00;50233.78;4955346;28;51030;-56
2021/12/19 03:42:25;;;;;;;;;23.00;18.50;;;;;-147.17;100.00;50214.09;4955261;28;50874;-55
2021/12/19 03:44:52;;;;;;;;;19.75;16.75;;;;;-147.17;100.00;50221.97;4954736;28;51274;-55
2021/12/19 03:47:18;;;;;;;;;21.00;18.75;;;;;-147.17;100.00;50196.38;4962669;28;51070;-55
2021/12/19 03:49:44;;;;;;;;;18.50;15.25;;;;;-147.17;100.00;50220.00;4959209;28;51498;-59
2021/12/19 03:52:09;;;;;;;;;21.25;21.25;;;;;-147.17;100.00;50192.44;4955104;28;50987;-55
2021/12/19 03:54:37;;;;;;;;;20.25;19.75;;;;;-147.17;100.00;50188.50;4955336;28;51072;-56
2021/12/19 03:57:06;;;;;;;;;24.00;18.00;;;;;-147.17;100.00;50164.88;4953566;28;51242;-56
2021/12/19 03:59:43;;;;;;;;;26.75;21.50;;;;;-147.17;100.00;50192.44;4953213;28;51242;-56
2021/12/19 04:02:12;;;;;;;;;23.75;19.25;;;;;-147.17;100.00;50166.84;4954752;28;50908;-55
2021/12/19 04:04:39;;;;;;;;;22.50;18.50;;;;;-147.17;100.00;50202.28;4953735;28;50977;-58
2021/12/19 04:07:05;;;;;;;;;22.00;20.75;;;;;-147.17;100.00;50216.06;4953329;28;53518;-55
2021/12/19 04:09:31;;;;;;;;;18.25;16.00;;;;;-147.17;100.00;50168.81;4954477;28;51142;-56
2021/12/19 04:11:57;;;;;;;;;19.25;18.00;;;;;-147.17;100.00;50214.09;4954341;28;51047;-56
2021/12/19 04:14:23;;;;;;;;;23.50;19.75;;;;;-147.17;100.00;50182.59;4952665;28;51401;-56
2021/12/19 04:16:51;;;;;;;;;18.75;18.25;;;;;-147.17;100.00;50184.56;4954256;28;50968;-55
2021/12/19 04:19:20;;;;;;;;;23.75;20.00;;;;;-147.17;100.00;50194.41;4954092;28;51239;-56
2021/12/19 04:21:46;;;;;;;;;22.50;17.75;;;;;-147.17;100.00;50202.28;4953461;28;51210;-57
2021/12/19 04:24:13;;;;;;;;;18.00;17.00;;;;;-147.17;100.00;50212.13;4954362;28;51342;-57
2021/12/19 04:26:39;;;;;;;;;22.75;19.00;;;;;-147.17;100.00;50210.16;4952578;28;54171;-54
2021/12/19 04:29:04;;;;;;;;;14.25;13.75;;;;;-147.17;100.00;50229.84;4952179;28;51034;-54
2021/12/19 04:31:29;;;;;;;;;23.00;18.25;;;;;-147.17;100.00;50229.84;4954135;28;51352;-56
2021/12/19 04:33:56;;;;;;;;;17.25;12.25;;;;;-147.17;100.00;50200.31;4950663;28;50865;-54
2021/12/19 04:36:27;;;;;;;;;14.00;11.50;;;;;-147.17;100.00;50218.03;4946176;28;51100;-54
2021/12/19 05:00:01;;;;;;;;;17.00;14.25;;;;;-147.17;100.00;50206.22;4966738;28;51072;-55
2021/12/19 05:02:38;;;;;;;;;15.00;11.25;;;;;-147.17;100.00;50180.63;4956083;28;51091;-55
2021/12/19 05:15:46;;;;;;;;;16.75;15.50;;;;;-147.17;100.00;50182.59;4957002;28;50941;-54
2021/12/19 05:18:12;;;;;;;;;18.75;15.50;;;;;-147.17;100.00;50166.84;4957032;28;52017;-55
2021/12/19 05:20:40;;;;;;;;;14.00;12.75;;;;;-147.17;100.00;50204.25;4957190;28;50932;-55
2021/12/19 05:23:17;;;;;;;;;16.25;14.75;;;;;-147.17;100.00;50188.50;4957102;28;51095;-53
2021/12/19 05:25:43;;;;;;;;;17.50;13.75;;;;;-147.17;100.00;50214.09;4956987;28;50968;-54
2021/12/19 05:28:08;;;;;;;;;10.00;8.50;;;;;-147.17;100.00;50204.25;4956634;28;51904;-52
2021/12/19 05:30:33;;;;;;;;;14.25;13.25;;;;;-147.17;100.00;50194.41;4956466;28;51137;-54
2021/12/19 05:33:01;;;;;;;;;15.50;13.00;;;;;-147.17;100.00;50206.22;4957094;28;50893;-56
2021/12/19 05:46:22;;;;;;;;;16.50;14.75;;;;;-147.17;100.00;50186.53;4956488;28;50973;-54
2021/12/19 05:48:47;;;;;;;;;17.25;14.25;;;;;-147.17;100.00;50127.47;4956059;28;52144;-53
2021/12/19 05:51:13;;;;;;;;;14.00;10.50;;;;;-147.17;100.00;50166.84;4956330;28;51152;-55
2021/12/19 05:53:38;;;;;;;;;18.25;15.00;;;;;-147.17;100.00;50172.75;4956488;28;51095;-55
2021/12/19 05:56:04;;;;;;;;;15.75;15.00;;;;;-147.17;100.00;50162.91;4956749;28;51198;-55
2021/12/19 05:58:29;;;;;;;;;14.50;12.00;;;;;-147.17;100.00;50160.94;4953582;28;53576;-56
2021/12/19 06:00:55;;;;;;;;;16.25;13.25;;;;;-147.17;100.00;50139.28;4954843;28;51033;-55
2021/12/19 06:03:20;;;;;;;;;13.75;13.75;;;;;-147.17;100.00;50168.81;4954740;28;50834;-54
2021/12/19 06:05:45;;;;;;;;;16.50;15.25;;;;;-147.17;100.00;50131.41;4956327;28;50876;-56
2021/12/19 06:08:11;;;;;;;;;18.00;15.50;;;;;-147.17;100.00;50153.06;4954295;28;52629;-54
2021/12/19 06:10:36;;;;;;;;;17.75;16.00;;;;;-147.17;100.00;50172.75;4956202;28;51181;-54
2021/12/19 06:13:01;;;;;;;;;16.75;13.00;;;;;-147.17;100.00;50172.75;4955953;28;50956;-53
2021/12/19 06:15:27;;;;;;;;;13.00;11.00;;;;;-147.17;100.00;50147.16;4955835;28;51095;-55
2021/12/19 06:17:53;;;;;;;;;17.00;15.00;;;;;-147.17;100.00;50182.59;4955693;28;50979;-55
2021/12/19 06:20:18;;;;;;;;;14.25;13.25;;;;;-147.17;100.00;50151.09;4956049;28;50997;-56
2021/12/19 06:22:43;;;;;;;;;15.25;13.00;;;;;-147.17;100.00;50180.63;4955984;28;51065;-55
2021/12/19 06:25:10;;;;;;;;;5.50;2.75;;;;;-147.17;100.00;50160.94;4956701;28;50892;-55
2021/12/19 06:27:35;;;;;;;;;19.25;17.50;;;;;-147.17;100.00;50168.81;4955974;28;51735;-55
2021/12/19 06:30:01;;;;;;;;;19.50;16.25;;;;;-147.17;100.00;50162.91;4956251;28;51043;-55
2021/12/19 06:32:26;;;;;;;;;8.00;7.50;;;;;-147.17;100.00;50127.47;4954587;28;51561;-53
2021/12/19 06:34:52;;;;;;;;;14.75;14.00;;;;;-147.17;100.00;50162.91;4952402;28;50980;-54
2021/12/19 06:37:17;;;;;;;;;15.50;14.25;;;;;-147.17;100.00;50155.03;4950412;28;52895;-54
2021/12/19 06:39:43;;;;;;;;;18.00;17.00;;;;;-147.17;100.00;50174.72;4953677;28;51077;-54
2021/12/19 06:42:09;;;;;;;;;19.00;17.00;;;;;-147.17;100.00;50170.78;4966616;28;51133;-54
2021/12/19 06:44:36;;;;;;;;;22.50;19.50;;;;;-147.17;100.00;50151.09;4968335;28;50889;-53
2021/12/19 06:47:02;;;;;;;;;17.50;16.00;;;;;-147.17;100.00;50198.34;4954278;28;51046;-56
2021/12/19 06:49:28;;;;;;;;;17.50;17.00;;;;;-147.17;100.00;50174.72;4955097;28;50897;-55
2021/12/19 06:51:54;;;;;;;;;19.75;18.25;;;;;-147.17;100.00;50174.72;4954077;28;51137;-55
2021/12/19 06:54:19;;;;;;;;;25.50;21.50;;;;;-147.17;100.00;50178.66;4955997;28;51043;-55
2021/12/19 06:56:44;;;;;;;;;22.25;19.00;;;;;-147.17;100.00;50198.34;4956084;28;52120;-55
2021/12/19 06:59:10;;;;;;;;;18.50;17.50;;;;;-147.17;100.00;50198.34;4955286;28;51098;-55
2021/12/19 07:01:39;;;;;;;;;15.00;14.00;;;;;-147.17;100.00;50162.91;4955636;28;51065;-55
2021/12/19 07:04:05;;;;;;;;;19.50;18.00;;;;;-147.17;100.00;50139.28;4955505;28;50988;-55
2021/12/19 07:06:30;;;;;;;;;12.50;12.25;;;;;-147.17;100.00;50174.72;4955035;28;52040;-56
2021/12/19 07:08:55;;;;;;;;;17.25;12.50;;;;;-147.17;100.00;50231.81;4954966;28;51056;-55
2021/12/19 07:11:21;;;;;;;;;10.75;10.25;;;;;-147.17;100.00;50216.06;4955457;28;51817;-54
2021/12/19 07:13:47;;;;;;;;;12.50;12.00;;;;;-147.17;100.00;50214.09;4954976;28;51075;-53
2021/12/19 07:16:12;;;;;;;;;10.50;10.25;;;;;-147.17;100.00;50221.97;4954778;28;52031;-55
2021/12/19 07:18:38;;;;;;;;;13.75;11.00;;;;;-147.17;100.00;50206.22;4955144;28;50993;-53
2021/12/19 07:21:05;;;;;;;;;17.25;14.25;;;;;-147.17;100.00;50200.31;4955106;28;51218;-54
2021/12/19 07:23:31;;;;;;;;;11.75;11.75;;;;;-147.17;100.00;50212.13;4955075;28;51179;-56
2021/12/19 07:25:56;;;;;;;;;13.00;11.75;;;;;-147.17;100.00;50170.78;4954687;28;51893;-55
2021/12/19 07:28:21;;;;;;;;;12.25;12.25;;;;;-147.17;100.00;50176.69;4954493;28;51125;-56
2021/12/19 07:30:47;;;;;;;;;12.25;10.50;;;;;-147.17;100.00;50129.44;4954946;28;51015;-55
2021/12/19 07:33:13;;;;;;;;;11.25;11.00;;;;;-147.17;100.00;50210.16;4955070;28;51325;-55
2021/12/19 07:35:42;;;;;;;;;14.00;12.25;;;;;-147.17;100.00;50214.09;4954421;28;51223;-55
2021/12/19 07:38:09;;;;;;;;;10.75;10.50;;;;;-147.17;100.00;50196.38;4954689;28;50954;-54
2021/12/19 07:40:39;;;;;;;;;9.25;8.50;;;;;-147.17;100.00;50233.78;4955000;28;51075;-54
2021/12/19 07:43:06;;;;;;;;;13.75;12.00;;;;;-147.17;100.00;50235.75;4953607;28;52150;-57
2021/12/19 07:45:32;;;;;;;;;11.75;11.00;;;;;-147.17;100.00;50218.03;4954192;28;51680;-54
2021/12/19 07:47:58;;;;;;;;;11.00;10.75;;;;;-147.17;100.00;50194.41;4954309;28;50969;-54
2021/12/19 07:50:24;;;;;;;;;13.75;12.25;;;;;-147.17;100.00;50198.34;4954778;28;51159;-56
2021/12/19 07:52:50;;;;;;;;;7.25;6.75;;;;;-147.17;100.00;50214.09;4954622;28;50969;-55
2021/12/19 07:55:15;;;;;;;;;10.25;8.75;;;;;-147.17;100.00;50200.31;4954257;28;51127;-56
2021/12/19 07:57:41;;;;;;;;;12.50;10.75;;;;;-147.17;100.00;50196.38;4953818;28;51014;-56
2021/12/19 08:00:09;;;;;;;;;12.25;10.25;;;;;-147.17;100.00;50198.34;4954209;28;51110;-56
2021/12/19 08:02:34;;;;;;;;;11.75;11.00;;;;;-147.17;100.00;50223.94;4954660;28;50953;-55
2021/12/19 08:05:00;;;;;;;;;8.75;7.25;;;;;-147.17;100.00;50172.75;4954166;28;51079;-56
2021/12/19 08:07:25;;;;;;;;;10.75;8.75;;;;;-147.17;100.00;50229.84;4954622;28;51381;-54
2021/12/19 08:10:13;;;;;;;;;14.50;11.50;;;;;-147.17;100.00;50190.47;4952649;28;51452;-53
2021/12/19 08:12:40;;;;;;;;;7.75;7.50;;;;;-147.17;100.00;50221.97;4953892;28;50965;-56
2021/12/19 08:15:07;;;;;;;;;11.50;10.50;;;;;-147.17;100.00;50196.38;4952536;28;52049;-55
2021/12/19 08:17:33;;;;;;;;;11.25;11.00;;;;;-147.17;100.00;50198.34;4951985;28;51933;-54
2021/12/19 08:19:59;;;;;;;;;12.00;11.00;;;;;-147.17;100.00;50204.25;4952067;28;51149;-55
2021/12/19 08:22:27;;;;;;;;;8.50;8.00;;;;;-147.17;100.00;50223.94;4954434;28;51048;-55
2021/12/19 08:24:52;;;;;;;;;6.00;6.00;;;;;-147.17;100.00;50210.16;4952109;28;51812;-55
2021/12/19 08:27:18;;;;;;;;;10.00;9.75;;;;;-147.17;100.00;50206.22;4952882;28;51094;-55
2021/12/19 08:29:43;;;;;;;;;11.00;11.00;;;;;-147.17;100.00;50190.47;4953100;28;50924;-54
2021/12/19 08:32:09;;;;;;;;;11.25;10.00;;;;;-147.17;100.00;50229.84;4954261;28;51180;-56
2021/12/19 08:34:35;;;;;;;;;9.50;9.00;;;;;-147.17;100.00;50231.81;4952918;28;52006;-56
2021/12/19 08:37:02;;;;;;;;;11.00;9.50;;;;;-147.17;100.00;50233.78;4940257;28;51110;-55
2021/12/19 08:39:28;;;;;;;;;12.00;10.75;;;;;-147.17;100.00;50202.28;4952271;28;51129;-55
2021/12/19 08:41:54;;;;;;;;;12.00;9.75;;;;;-147.17;100.00;50229.84;4952016;28;51075;-56
2021/12/19 08:44:19;;;;;;;;;10.00;6.25;;;;;-147.17;100.00;50237.72;4952057;28;51731;-55
2021/12/19 08:46:45;;;;;;;;;12.50;11.00;;;;;-147.17;100.00;50229.84;4953618;28;51003;-55
2021/12/19 08:49:11;;;;;;;;;14.25;12.00;;;;;-147.17;100.00;50241.66;4951908;28;51139;-54
2021/12/19 08:51:37;;;;;;;;;13.25;12.00;;;;;-147.17;100.00;50243.63;4961822;28;51260;-55
2021/12/19 08:54:04;;;;;;;;;16.50;15.75;;;;;-147.17;100.00;50221.97;4953673;28;52536;-56
2021/12/19 08:56:30;;;;;;;;;14.50;12.50;;;;;-147.17;100.00;50241.66;4953566;28;51126;-55
2021/12/19 08:58:55;;;;;;;;;14.00;11.25;;;;;-147.17;100.00;50229.84;4953035;28;51393;-56
2021/12/19 09:01:21;;;;;;;;;13.25;11.00;;;;;-147.17;100.00;50214.09;4952448;28;51162;-55
2021/12/19 09:03:46;;;;;;;;;15.50;15.25;;;;;-147.17;100.00;50221.97;4960221;28;52011;-56
2021/12/19 09:06:12;;;;;;;;;10.75;10.25;;;;;-147.17;100.00;50218.03;4953481;28;50990;-55
2021/12/19 09:08:38;;;;;;;;;16.25;13.00;;;;;-147.17;100.00;50200.31;4951547;28;51161;-56
2021/12/19 09:11:03;;;;;;;;;13.75;11.50;;;;;-147.17;100.00;50223.94;4953319;28;51377;-56
2021/12/19 09:13:29;;;;;;;;;15.75;15.00;;;;;-147.17;100.00;50194.41;4951398;28;51889;-55
2021/12/19 09:15:55;;;;;;;;;14.25;10.50;;;;;-147.17;100.00;50245.59;4951844;28;51382;-56
2021/12/19 09:18:21;;;;;;;;;15.75;14.50;;;;;-147.17;100.00;50210.16;4951997;28;51130;-56
2021/12/19 09:20:48;;;;;;;;;15.50;12.25;;;;;-147.17;100.00;50218.03;4952136;28;51139;-56
2021/12/19 09:23:16;;;;;;;;;11.50;11.50;;;;;-147.17;100.00;50212.13;4949248;28;52788;-56
2021/12/19 09:25:41;;;;;;;;;15.50;14.75;;;;;-147.17;100.00;50235.75;4964130;28;51105;-57
2021/12/19 09:28:07;;;;;;;;;17.75;12.75;;;;;-147.17;100.00;50225.91;4954293;28;51027;-57
2021/12/19 09:30:33;;;;;;;;;17.25;15.00;;;;;-147.17;100.00;50214.09;4959262;28;50961;-56
2021/12/19 09:32:58;;;;;;;;;12.50;12.25;;;;;-147.17;100.00;50233.78;4952534;28;51076;-56
2021/12/19 09:35:24;;;;;;;;;11.75;11.00;;;;;-147.17;100.00;50251.50;4951329;28;51079;-57
2021/12/19 09:37:49;;;;;;;;;15.50;15.00;;;;;-147.17;100.00;50245.59;4950907;28;50945;-56
2021/12/19 09:40:22;;;;;;;;;16.00;13.25;;;;;-147.17;100.00;50225.91;4954737;28;51416;-55
2021/12/19 09:42:51;;;;;;;;;12.25;10.50;;;;;-147.17;100.00;50241.66;4956623;28;51731;-57
2021/12/19 09:45:18;;;;;;;;;19.50;13.75;;;;;-147.17;100.00;50214.09;4953730;28;51104;-56
2021/12/19 09:47:44;;;;;;;;;16.00;14.75;;;;;-147.17;100.00;50253.47;4950729;28;51013;-56
2021/12/19 09:50:10;;;;;;;;;16.25;13.75;;;;;-147.17;100.00;50233.78;4955007;28;51141;-56
2021/12/19 09:52:36;;;;;;;;;20.00;16.25;;;;;-147.17;100.00;50231.81;4954538;28;51989;-57
2021/12/19 09:55:03;;;;;;;;;13.00;11.25;;;;;-147.17;100.00;50229.84;4962657;28;51212;-57
2021/12/19 09:57:29;;;;;;;;;12.50;11.50;;;;;-147.17;100.00;50229.84;4956465;28;51005;-56
2021/12/19 09:59:55;;;;;;;;;14.25;9.50;;;;;-147.17;100.00;50233.78;4959349;28;51167;-56
2021/12/19 10:02:21;;;;;;;;;6.00;6.00;;;;;-147.17;100.00;50233.78;4954064;28;52803;-55
2021/12/19 10:04:47;;;;;;;;;11.00;9.25;;;;;-147.17;100.00;50284.97;4955588;28;51072;-56
2021/12/19 10:07:14;;;;;;;;;11.25;10.00;;;;;-147.17;100.00;50247.56;4955518;28;51185;-57
2021/12/19 10:10:11;;;;;;;;;9.50;9.50;;;;;-147.17;100.00;50229.84;4954350;28;51393;-54
2021/12/19 10:12:48;;;;;;;;;11.25;11.25;;;;;-147.17;100.00;50263.31;4953551;28;51976;-56
2021/12/19 10:15:34;;;;;;;;;16.25;13.25;;;;;-147.17;100.00;50243.63;4954972;28;51914;-55
2021/12/19 10:18:07;;;;;;;;;12.25;11.25;;;;;-147.17;100.00;50237.72;4955584;28;51180;-56
2021/12/19 10:20:47;;;;;;;;;10.25;7.75;;;;;-147.17;100.00;50243.63;4954324;28;51329;-55
2021/12/19 10:23:19;;;;;;;;;21.75;15.75;;;;;-147.17;100.00;50265.28;4966536;28;51093;-55
2021/12/19 10:25:56;;;;;;;;;14.25;14.25;;;;;-147.17;100.00;50231.81;4959874;28;51026;-56
2021/12/19 10:28:21;;;;;;;;;13.50;12.50;;;;;-147.17;100.00;50253.47;4954483;28;50930;-58
2021/12/19 10:30:49;;;;;;;;;20.25;16.75;;;;;-147.17;100.00;50269.22;4954841;28;51140;-56
2021/12/19 10:33:19;;;;;;;;;15.00;13.00;;;;;-147.17;100.00;50259.38;4941305;28;51896;-55
2021/12/19 10:35:53;;;;;;;;;18.75;17.00;;;;;-147.17;100.00;50271.19;4973401;28;51233;-56
2021/12/19 10:38:31;;;;;;;;;22.50;17.25;;;;;-147.17;100.00;50231.81;4950481;28;51181;-55
2021/12/19 10:41:06;;;;;;;;;13.50;13.00;;;;;-147.17;100.00;50245.59;4954804;28;51193;-57
2021/12/19 10:43:33;;;;;;;;;15.00;11.50;;;;;-147.17;100.00;50231.81;4954250;28;52632;-56
2021/12/19 10:46:04;;;;;;;;;16.00;15.00;;;;;-147.17;100.00;50261.34;4954858;28;51164;-54
2021/12/19 10:48:39;;;;;;;;;17.50;14.50;;;;;-147.17;100.00;50271.19;4954337;28;51151;-54
2021/12/19 10:51:07;;;;;;;;;18.75;18.75;;;;;-147.17;100.00;50284.97;4952159;28;50905;-55
2021/12/19 10:53:32;;;;;;;;;19.00;18.00;;;;;-147.17;100.00;50273.16;4952793;28;52991;-57
2021/12/19 10:55:59;;;;;;;;;21.75;20.00;;;;;-147.17;100.00;50257.41;4952917;28;50961;-55
2021/12/19 10:58:25;;;;;;;;;17.00;15.00;;;;;-147.17;100.00;50273.16;4954694;28;51186;-56
2021/12/19 11:01:05;;;;;;;;;21.50;16.75;;;;;-147.17;100.00;50265.28;4954642;28;51294;-55
2021/12/19 11:03:57;;;;;;;;;19.00;17.50;;;;;-147.17;100.00;50257.41;4954416;28;51787;-57
2021/12/19 11:06:40;;;;;;;;;18.25;17.75;;;;;-147.17;100.00;50245.59;4944347;28;51111;-56
2021/12/19 11:09:14;;;;;;;;;19.25;17.00;;;;;-147.17;100.00;50281.03;4952632;28;51280;-58
2021/12/19 11:11:39;;;;;;;;;20.25;17.50;;;;;-147.17;100.00;50300.72;4952615;28;51430;-56
2021/12/19 11:14:07;;;;;;;;;19.50;18.00;;;;;-147.17;100.00;50281.03;4951836;28;53915;-57
2021/12/19 11:16:32;;;;;;;;;13.25;11.25;;;;;-147.17;100.00;50320.38;4953170;28;51116;-57
2021/12/19 11:18:58;;;;;;;;;19.75;16.50;;;;;-147.17;100.00;50306.63;4949992;28;51189;-56
2021/12/19 11:21:24;;;;;;;;;14.75;13.00;;;;;-147.17;100.00;50296.78;4952699;28;51343;-55
2021/12/19 11:23:50;;;;;;;;;15.75;13.25;;;;;-147.17;100.00;50296.78;4954039;28;51487;-57
2021/12/19 11:26:20;;;;;;;;;17.25;16.00;;;;;-147.17;100.00;50302.69;4952958;28;51305;-56
2021/12/19 11:28:47;;;;;;;;;20.00;17.00;;;;;-147.17;100.00;50318.41;4952838;28;51097;-57
2021/12/19 11:31:12;;;;;;;;;19.00;16.50;;;;;-147.17;100.00;50349.91;4943782;28;51226;-54
2021/12/19 11:34:03;;;;;;;;;19.00;18.00;;;;;-147.17;100.00;50336.13;4953794;28;51087;-56
2021/12/19 11:36:34;;;;;;;;;19.00;18.00;;;;;-147.17;100.00;50338.09;4949084;28;51068;-55
2021/12/19 11:39:04;;;;;;;;;20.00;18.00;;;;;-147.17;100.00;50322.34;4953331;28;51119;-56
2021/12/19 11:41:31;;;;;;;;;19.25;18.25;;;;;-147.17;100.00;50324.31;4952926;28;51120;-55
2021/12/19 11:44:00;;;;;;;;;23.00;20.25;;;;;-147.17;100.00;50320.38;4950624;28;51760;-56
2021/12/19 11:46:50;;;;;;;;;16.50;16.00;;;;;-147.17;100.00;50334.16;4953163;28;51209;-56
2021/12/19 11:49:21;;;;;;;;;23.75;21.00;;;;;-147.17;100.00;50318.41;4945925;28;51070;-56
2021/12/19 11:51:47;;;;;;;;;21.50;17.25;;;;;-147.17;100.00;50300.72;4952450;28;51215;-56
2021/12/19 11:54:18;;;;;;;;;19.75;18.75;;;;;-147.17;100.00;50284.97;4947659;28;53881;-56
2021/12/19 11:57:07;;;;;;;;;26.25;23.00;;;;;-147.17;100.00;50281.03;4946194;28;51189;-55
2021/12/19 11:59:33;;;;;;;;;19.00;17.50;;;;;-147.17;100.00;50318.41;4942972;28;51168;-55
2021/12/19 12:02:21;;;;;;;;;19.25;19.00;;;;;-147.17;100.00;50283.00;4949753;28;51182;-54
2021/12/19 12:05:22;;;;;;;;;26.00;24.50;;;;;-147.17;100.00;50283.00;4951482;28;51867;-55